N312CL MBPV-KFXE
Flight info
| Callsign | N312CL |
|---|---|
| Flight time | N/A |
| Altitude | 18000 |
| Route | SOFAR KYAKS3 |
| Aircraft | BT36/L-BDFGLORY/S |
Departure
| Time | 2026-04-21 01:46 |
|---|---|
| Airport | Providenciales International Airport (MBPV) |
Arrival
| Time | N/A |
|---|---|
| Airport | Fort Lauderdale Executive Airport (KFXE) |
| Time | Latitude | Longitude | Altitude | Speed | Heading |
|---|---|---|---|---|---|
| 2026-04-21 01:37 | 21.77556 | -72.27005 | 4 ft | 0 kts | 24° |
| 2026-04-21 01:43 | 21.77562 | -72.26999 | 4 ft | 5 kts | 53° |
| 2026-04-21 01:44 | 21.77577 | -72.27003 | 7 ft | 4 kts | 282° |
| 2026-04-21 01:44 | 21.77572 | -72.27066 | 5 ft | 0 kts | 239° |
| 2026-04-21 01:44 | 21.77560 | -72.27087 | 5 ft | 9 kts | 238° |
| 2026-04-21 01:44 | 21.77514 | -72.27185 | 6 ft | 20 kts | 252° |
| 2026-04-21 01:45 | 21.77426 | -72.27201 | 6 ft | 15 kts | 178° |
| 2026-04-21 01:45 | 21.77386 | -72.27057 | 5 ft | 39 kts | 94° |
| 2026-04-21 01:45 | 21.77362 | -72.26589 | 2 ft | 85 kts | 93° |
| 2026-04-21 01:45 | 21.77321 | -72.25839 | 105 ft | 109 kts | 91° |
| 2026-04-21 01:46 | 21.77274 | -72.25012 | 413 ft | 110 kts | 93° |
| 2026-04-21 01:46 | 21.77260 | -72.24144 | 541 ft | 125 kts | 91° |
| 2026-04-21 01:46 | 21.77196 | -72.23226 | 699 ft | 125 kts | 94° |
| 2026-04-21 01:46 | 21.77108 | -72.22336 | 955 ft | 121 kts | 94° |
| 2026-04-21 01:47 | 21.77029 | -72.21411 | 1186 ft | 132 kts | 90° |
| 2026-04-21 01:47 | 21.76991 | -72.20351 | 1529 ft | 145 kts | 91° |
| 2026-04-21 01:47 | 21.77141 | -72.19255 | 1907 ft | 155 kts | 62° |
| 2026-04-21 01:47 | 21.77993 | -72.18528 | 2255 ft | 168 kts | 17° |
| 2026-04-21 01:48 | 21.79126 | -72.18507 | 2798 ft | 167 kts | 358° |
| 2026-04-21 01:48 | 21.80277 | -72.18553 | 3292 ft | 165 kts | 1° |
| 2026-04-21 01:48 | 21.81456 | -72.18544 | 3624 ft | 171 kts | 1° |
| 2026-04-21 01:48 | 21.82655 | -72.18557 | 4012 ft | 173 kts | 0° |
| 2026-04-21 01:49 | 21.83859 | -72.18577 | 4411 ft | 173 kts | 0° |
| 2026-04-21 01:49 | 21.85065 | -72.18595 | 4802 ft | 174 kts | 360° |
| 2026-04-21 01:49 | 21.86285 | -72.18614 | 5149 ft | 176 kts | 359° |
| 2026-04-21 01:49 | 21.87516 | -72.18634 | 5491 ft | 176 kts | 359° |
| 2026-04-21 01:50 | 21.88744 | -72.18653 | 5835 ft | 177 kts | 359° |
| 2026-04-21 01:50 | 21.89980 | -72.18673 | 6163 ft | 179 kts | 359° |
| 2026-04-21 01:50 | 21.91228 | -72.18693 | 6496 ft | 180 kts | 359° |
| 2026-04-21 01:50 | 21.92484 | -72.18713 | 6811 ft | 181 kts | 359° |
| 2026-04-21 01:51 | 21.93745 | -72.18735 | 7130 ft | 181 kts | 359° |
| 2026-04-21 01:51 | 21.95013 | -72.18756 | 7418 ft | 183 kts | 358° |
| 2026-04-21 01:51 | 21.96293 | -72.18778 | 7708 ft | 185 kts | 358° |
| 2026-04-21 01:51 | 21.97581 | -72.18800 | 8014 ft | 186 kts | 358° |
| 2026-04-21 01:52 | 21.98835 | -72.19008 | 8285 ft | 186 kts | 338° |
| 2026-04-21 01:52 | 22.00718 | -72.20833 | 8874 ft | 186 kts | 298° |
| 2026-04-21 01:52 | 22.01348 | -72.22062 | 9142 ft | 188 kts | 299° |
| 2026-04-21 01:53 | 22.02006 | -72.23288 | 9443 ft | 189 kts | 299° |
| 2026-04-21 01:53 | 22.02655 | -72.24520 | 9732 ft | 190 kts | 299° |
| 2026-04-21 01:53 | 22.03306 | -72.25757 | 10035 ft | 189 kts | 298° |
| 2026-04-21 01:53 | 22.03953 | -72.26989 | 10312 ft | 189 kts | 299° |
| 2026-04-21 01:54 | 22.04607 | -72.28229 | 10531 ft | 191 kts | 299° |
| 2026-04-21 01:54 | 22.05261 | -72.29478 | 10789 ft | 192 kts | 298° |
| 2026-04-21 01:54 | 22.05908 | -72.30708 | 11086 ft | 190 kts | 298° |
| 2026-04-21 01:54 | 22.06561 | -72.31952 | 11337 ft | 191 kts | 299° |
| 2026-04-21 01:55 | 22.07220 | -72.33205 | 11602 ft | 192 kts | 298° |
| 2026-04-21 01:55 | 22.07881 | -72.34465 | 11840 ft | 194 kts | 299° |
| 2026-04-21 01:55 | 22.08545 | -72.35728 | 12108 ft | 195 kts | 299° |
| 2026-04-21 01:55 | 22.09215 | -72.37007 | 12354 ft | 196 kts | 299° |
| 2026-04-21 01:56 | 22.09884 | -72.38283 | 12648 ft | 196 kts | 299° |
| 2026-04-21 01:56 | 22.10555 | -72.39564 | 12902 ft | 197 kts | 299° |
| 2026-04-21 01:56 | 22.11231 | -72.40858 | 13154 ft | 198 kts | 299° |
| 2026-04-21 01:56 | 22.11912 | -72.42157 | 13423 ft | 199 kts | 299° |
| 2026-04-21 01:57 | 22.12593 | -72.43461 | 13699 ft | 199 kts | 299° |
| 2026-04-21 01:57 | 22.13280 | -72.44769 | 13942 ft | 201 kts | 299° |
| 2026-04-21 01:57 | 22.14033 | -72.46038 | 14201 ft | 200 kts | 304° |
| 2026-04-21 01:57 | 22.14812 | -72.47263 | 14440 ft | 201 kts | 303° |
| 2026-04-21 01:58 | 22.15588 | -72.48538 | 14691 ft | 201 kts | 302° |
| 2026-04-21 01:58 | 22.16353 | -72.49801 | 14935 ft | 201 kts | 302° |
| 2026-04-21 01:58 | 22.17107 | -72.51049 | 15175 ft | 202 kts | 302° |
| 2026-04-21 01:58 | 22.17877 | -72.52316 | 15419 ft | 202 kts | 302° |
| 2026-04-21 01:59 | 22.18648 | -72.53586 | 15663 ft | 202 kts | 302° |
| 2026-04-21 01:59 | 22.19420 | -72.54859 | 15911 ft | 203 kts | 302° |
| 2026-04-21 01:59 | 22.20193 | -72.56132 | 16156 ft | 203 kts | 302° |
| 2026-04-21 01:59 | 22.20967 | -72.57411 | 16403 ft | 204 kts | 302° |
| 2026-04-21 02:00 | 22.21745 | -72.58692 | 16653 ft | 204 kts | 302° |
| 2026-04-21 02:00 | 22.22521 | -72.59975 | 16904 ft | 204 kts | 302° |
| 2026-04-21 02:00 | 22.23300 | -72.61259 | 17145 ft | 205 kts | 302° |
| 2026-04-21 02:00 | 22.24081 | -72.62550 | 17392 ft | 205 kts | 302° |
| 2026-04-21 02:01 | 22.24864 | -72.63842 | 17637 ft | 206 kts | 302° |
| 2026-04-21 02:01 | 22.25650 | -72.65141 | 17882 ft | 207 kts | 302° |
| 2026-04-21 02:01 | 22.26430 | -72.66428 | 18128 ft | 207 kts | 302° |
| 2026-04-21 02:01 | 22.27219 | -72.67736 | 18370 ft | 208 kts | 302° |
| 2026-04-21 02:02 | 22.28011 | -72.69046 | 18587 ft | 208 kts | 302° |
| 2026-04-21 02:02 | 22.28807 | -72.70364 | 18803 ft | 209 kts | 301° |
| 2026-04-21 02:02 | 22.29601 | -72.71680 | 19021 ft | 209 kts | 302° |
| 2026-04-21 02:02 | 22.30387 | -72.72981 | 19235 ft | 210 kts | 301° |
| 2026-04-21 02:03 | 22.31193 | -72.74318 | 19454 ft | 210 kts | 301° |
| 2026-04-21 02:03 | 22.31983 | -72.75624 | 19667 ft | 210 kts | 301° |
| 2026-04-21 02:03 | 22.32785 | -72.76956 | 19883 ft | 211 kts | 301° |
| 2026-04-21 02:03 | 22.33587 | -72.78283 | 20099 ft | 211 kts | 301° |
| 2026-04-21 02:04 | 22.34390 | -72.79617 | 20317 ft | 212 kts | 301° |
| 2026-04-21 02:04 | 22.35195 | -72.80951 | 20534 ft | 212 kts | 301° |
| 2026-04-21 02:04 | 22.36002 | -72.82289 | 20751 ft | 213 kts | 301° |
| 2026-04-21 02:04 | 22.36810 | -72.83629 | 20970 ft | 213 kts | 301° |
| 2026-04-21 02:05 | 22.37619 | -72.84968 | 21212 ft | 212 kts | 301° |
| 2026-04-21 02:05 | 22.38423 | -72.86304 | 21450 ft | 212 kts | 301° |
| 2026-04-21 02:05 | 22.39227 | -72.87634 | 21688 ft | 211 kts | 301° |
| 2026-04-21 02:05 | 22.40026 | -72.88963 | 21940 ft | 210 kts | 301° |
| 2026-04-21 02:06 | 22.40825 | -72.90286 | 22164 ft | 210 kts | 301° |
| 2026-04-21 02:06 | 22.41619 | -72.91608 | 22402 ft | 209 kts | 301° |
| 2026-04-21 02:06 | 22.42412 | -72.92922 | 22639 ft | 209 kts | 301° |
| 2026-04-21 02:06 | 22.43202 | -72.94236 | 22879 ft | 208 kts | 301° |
| 2026-04-21 02:07 | 22.43991 | -72.95546 | 23117 ft | 207 kts | 301° |
| 2026-04-21 02:07 | 22.44776 | -72.96851 | 23356 ft | 207 kts | 301° |
| 2026-04-21 02:07 | 22.45560 | -72.98154 | 23598 ft | 206 kts | 301° |
| 2026-04-21 02:07 | 22.46343 | -72.99455 | 23815 ft | 206 kts | 300° |
| 2026-04-21 02:08 | 22.47119 | -73.00746 | 24028 ft | 204 kts | 301° |
| 2026-04-21 02:08 | 22.47881 | -73.02015 | 24231 ft | 203 kts | 300° |
| 2026-04-21 02:08 | 22.48657 | -73.03309 | 24448 ft | 202 kts | 300° |
| 2026-04-21 02:08 | 22.49408 | -73.04559 | 24660 ft | 200 kts | 300° |
| 2026-04-21 02:09 | 22.50164 | -73.05820 | 24877 ft | 199 kts | 300° |
| 2026-04-21 02:09 | 22.50916 | -73.07072 | 25093 ft | 198 kts | 300° |
| 2026-04-21 02:09 | 22.51659 | -73.08314 | 25311 ft | 196 kts | 300° |
| 2026-04-21 02:09 | 22.52399 | -73.09544 | 25564 ft | 194 kts | 300° |
| 2026-04-21 02:10 | 22.53128 | -73.10762 | 25783 ft | 192 kts | 300° |
| 2026-04-21 02:10 | 22.53853 | -73.11971 | 26005 ft | 191 kts | 299° |
| 2026-04-21 02:10 | 22.54582 | -73.13192 | 26083 ft | 197 kts | 299° |
| 2026-04-21 02:10 | 22.55344 | -73.14464 | 26095 ft | 206 kts | 300° |
| 2026-04-21 02:11 | 22.56136 | -73.15786 | 26102 ft | 213 kts | 300° |
| 2026-04-21 02:11 | 22.56957 | -73.17157 | 26099 ft | 221 kts | 300° |
| 2026-04-21 02:11 | 22.57805 | -73.18572 | 26102 ft | 227 kts | 300° |
| 2026-04-21 02:11 | 22.58674 | -73.20022 | 26100 ft | 233 kts | 300° |
| 2026-04-21 02:12 | 22.59565 | -73.21507 | 26097 ft | 237 kts | 300° |
| 2026-04-21 02:12 | 22.60469 | -73.23020 | 26098 ft | 242 kts | 300° |
| 2026-04-21 02:12 | 22.61393 | -73.24561 | 26099 ft | 245 kts | 300° |
| 2026-04-21 02:12 | 22.62326 | -73.26122 | 26099 ft | 248 kts | 300° |
| 2026-04-21 02:13 | 22.63270 | -73.27699 | 26099 ft | 251 kts | 300° |
| 2026-04-21 02:13 | 22.64224 | -73.29294 | 26100 ft | 253 kts | 300° |
| 2026-04-21 02:13 | 22.65175 | -73.30885 | 26101 ft | 255 kts | 300° |
| 2026-04-21 02:13 | 22.66144 | -73.32505 | 26100 ft | 257 kts | 300° |
| 2026-04-21 02:14 | 22.67117 | -73.34136 | 26099 ft | 258 kts | 300° |
| 2026-04-21 02:14 | 22.68095 | -73.35772 | 26098 ft | 260 kts | 300° |
| 2026-04-21 02:14 | 22.69079 | -73.37420 | 26097 ft | 261 kts | 300° |
| 2026-04-21 02:14 | 22.70066 | -73.39076 | 26098 ft | 262 kts | 300° |
| 2026-04-21 02:15 | 22.71058 | -73.40736 | 26101 ft | 263 kts | 300° |
| 2026-04-21 02:15 | 22.72054 | -73.42408 | 26101 ft | 264 kts | 300° |
| 2026-04-21 02:15 | 22.73053 | -73.44084 | 26100 ft | 265 kts | 300° |
| 2026-04-21 02:15 | 22.74052 | -73.45763 | 26101 ft | 266 kts | 300° |
| 2026-04-21 02:16 | 22.75059 | -73.47452 | 26100 ft | 267 kts | 300° |
| 2026-04-21 02:16 | 22.76065 | -73.49142 | 26101 ft | 267 kts | 300° |
| 2026-04-21 02:16 | 22.77061 | -73.50816 | 26101 ft | 268 kts | 300° |
| 2026-04-21 02:16 | 22.78072 | -73.52515 | 26098 ft | 269 kts | 300° |
| 2026-04-21 02:17 | 22.79086 | -73.54220 | 26097 ft | 269 kts | 300° |
| 2026-04-21 02:17 | 22.80101 | -73.55927 | 26097 ft | 270 kts | 300° |
| 2026-04-21 02:17 | 22.81119 | -73.57639 | 26098 ft | 270 kts | 300° |
| 2026-04-21 02:17 | 22.82137 | -73.59353 | 26098 ft | 271 kts | 300° |
| 2026-04-21 02:18 | 22.83159 | -73.61072 | 26095 ft | 271 kts | 300° |
| 2026-04-21 02:18 | 22.84180 | -73.62793 | 26096 ft | 272 kts | 300° |
| 2026-04-21 02:18 | 22.85204 | -73.64518 | 26096 ft | 272 kts | 300° |
| 2026-04-21 02:18 | 22.86229 | -73.66244 | 26100 ft | 272 kts | 300° |
| 2026-04-21 02:19 | 22.87254 | -73.67974 | 26097 ft | 272 kts | 300° |
| 2026-04-21 02:19 | 22.88281 | -73.69705 | 26097 ft | 272 kts | 300° |
| 2026-04-21 02:19 | 22.89307 | -73.71432 | 26097 ft | 273 kts | 300° |
| 2026-04-21 02:19 | 22.90331 | -73.73161 | 26099 ft | 273 kts | 300° |
| 2026-04-21 02:20 | 22.91361 | -73.74897 | 26099 ft | 273 kts | 300° |
| 2026-04-21 02:20 | 22.92375 | -73.76609 | 26099 ft | 273 kts | 300° |
| 2026-04-21 02:20 | 22.93414 | -73.78365 | 26099 ft | 273 kts | 300° |
| 2026-04-21 02:20 | 22.94430 | -73.80078 | 26099 ft | 273 kts | 300° |
| 2026-04-21 02:21 | 22.95457 | -73.81815 | 26102 ft | 273 kts | 300° |
| 2026-04-21 02:21 | 22.96484 | -73.83551 | 26102 ft | 274 kts | 300° |
| 2026-04-21 02:21 | 22.97513 | -73.85289 | 26102 ft | 274 kts | 300° |
| 2026-04-21 02:21 | 22.98539 | -73.87027 | 26102 ft | 274 kts | 300° |
| 2026-04-21 02:22 | 22.99569 | -73.88766 | 26102 ft | 274 kts | 300° |
| 2026-04-21 02:22 | 23.00595 | -73.90504 | 26102 ft | 274 kts | 300° |
| 2026-04-21 02:22 | 23.01625 | -73.92247 | 26102 ft | 274 kts | 300° |
| 2026-04-21 02:22 | 23.02653 | -73.93988 | 26105 ft | 274 kts | 300° |
| 2026-04-21 02:23 | 23.03334 | -73.95143 | 26103 ft | 274 kts | 300° |
| 2026-04-21 02:23 | 23.04708 | -73.97471 | 26103 ft | 274 kts | 300° |
| 2026-04-21 02:23 | 23.05388 | -73.98624 | 26103 ft | 274 kts | 300° |
| 2026-04-21 02:23 | 23.06412 | -74.00364 | 26103 ft | 274 kts | 300° |
| 2026-04-21 02:24 | 23.07441 | -74.02107 | 26105 ft | 273 kts | 300° |
| 2026-04-21 02:24 | 23.08464 | -74.03847 | 26105 ft | 273 kts | 300° |
| 2026-04-21 02:24 | 23.09494 | -74.05593 | 26105 ft | 273 kts | 300° |
| 2026-04-21 02:24 | 23.10516 | -74.07330 | 26105 ft | 273 kts | 300° |
| 2026-04-21 02:25 | 23.11542 | -74.09075 | 26104 ft | 273 kts | 300° |
| 2026-04-21 02:25 | 23.12567 | -74.10814 | 26104 ft | 273 kts | 300° |
| 2026-04-21 02:25 | 23.13592 | -74.12560 | 26104 ft | 273 kts | 300° |
| 2026-04-21 02:25 | 23.14602 | -74.14276 | 26104 ft | 273 kts | 300° |
| 2026-04-21 02:26 | 23.15627 | -74.16019 | 26103 ft | 273 kts | 300° |
| 2026-04-21 02:26 | 23.16648 | -74.17760 | 26104 ft | 273 kts | 300° |
| 2026-04-21 02:26 | 23.17671 | -74.19499 | 26104 ft | 273 kts | 300° |
| 2026-04-21 02:26 | 23.18694 | -74.21243 | 26104 ft | 273 kts | 300° |
| 2026-04-21 02:27 | 23.19717 | -74.22985 | 26105 ft | 273 kts | 300° |
| 2026-04-21 02:27 | 23.20741 | -74.24727 | 26105 ft | 273 kts | 300° |
| 2026-04-21 02:27 | 23.21763 | -74.26470 | 26105 ft | 273 kts | 300° |
| 2026-04-21 02:27 | 23.22785 | -74.28213 | 26105 ft | 273 kts | 300° |
| 2026-04-21 02:28 | 23.23806 | -74.29953 | 26107 ft | 273 kts | 300° |
| 2026-04-21 02:28 | 23.24828 | -74.31697 | 26107 ft | 273 kts | 300° |
| 2026-04-21 02:28 | 23.25849 | -74.33438 | 26107 ft | 273 kts | 300° |
| 2026-04-21 02:28 | 23.26872 | -74.35185 | 26107 ft | 273 kts | 300° |
| 2026-04-21 02:29 | 23.27891 | -74.36927 | 26103 ft | 274 kts | 299° |
| 2026-04-21 02:29 | 23.28914 | -74.38674 | 26104 ft | 274 kts | 299° |
| 2026-04-21 02:29 | 23.29937 | -74.40420 | 26104 ft | 273 kts | 299° |
| 2026-04-21 02:29 | 23.30958 | -74.42167 | 26104 ft | 273 kts | 299° |
| 2026-04-21 02:30 | 23.31978 | -74.43910 | 26104 ft | 273 kts | 299° |
| 2026-04-21 02:30 | 23.32998 | -74.45656 | 26104 ft | 273 kts | 299° |
| 2026-04-21 02:30 | 23.34018 | -74.47401 | 26104 ft | 273 kts | 299° |
| 2026-04-21 02:30 | 23.35037 | -74.49145 | 26107 ft | 273 kts | 299° |
| 2026-04-21 02:31 | 23.36042 | -74.50867 | 26108 ft | 273 kts | 299° |
| 2026-04-21 02:31 | 23.37057 | -74.52609 | 26108 ft | 273 kts | 299° |
| 2026-04-21 02:31 | 23.38076 | -74.54353 | 26108 ft | 273 kts | 299° |
| 2026-04-21 02:31 | 23.39091 | -74.56095 | 26108 ft | 273 kts | 299° |
| 2026-04-21 02:32 | 23.40107 | -74.57839 | 26109 ft | 273 kts | 299° |
| 2026-04-21 02:32 | 23.41124 | -74.59583 | 26109 ft | 273 kts | 299° |
| 2026-04-21 02:32 | 23.42140 | -74.61328 | 26109 ft | 273 kts | 299° |
| 2026-04-21 02:32 | 23.43156 | -74.63073 | 26109 ft | 273 kts | 299° |
| 2026-04-21 02:33 | 23.44172 | -74.64818 | 26110 ft | 273 kts | 299° |
| 2026-04-21 02:33 | 23.45187 | -74.66563 | 26110 ft | 273 kts | 299° |
| 2026-04-21 02:33 | 23.46202 | -74.68305 | 26110 ft | 273 kts | 299° |
| 2026-04-21 02:33 | 23.47214 | -74.70048 | 26110 ft | 272 kts | 299° |
| 2026-04-21 02:34 | 23.48228 | -74.71791 | 26110 ft | 272 kts | 299° |
| 2026-04-21 02:34 | 23.49243 | -74.73539 | 26110 ft | 272 kts | 299° |
| 2026-04-21 02:34 | 23.50243 | -74.75261 | 26110 ft | 272 kts | 299° |
| 2026-04-21 02:34 | 23.51258 | -74.77006 | 26110 ft | 272 kts | 299° |
| 2026-04-21 02:35 | 23.52271 | -74.78751 | 26111 ft | 272 kts | 299° |
| 2026-04-21 02:35 | 23.53284 | -74.80495 | 26111 ft | 272 kts | 299° |
| 2026-04-21 02:35 | 23.54296 | -74.82238 | 26111 ft | 272 kts | 299° |
| 2026-04-21 02:35 | 23.55308 | -74.83983 | 26111 ft | 272 kts | 299° |
| 2026-04-21 02:36 | 23.56324 | -74.85734 | 26114 ft | 272 kts | 299° |
| 2026-04-21 02:36 | 23.57334 | -74.87477 | 26114 ft | 272 kts | 299° |
| 2026-04-21 02:36 | 23.58346 | -74.89224 | 26114 ft | 272 kts | 299° |
| 2026-04-21 02:36 | 23.59347 | -74.90949 | 26114 ft | 272 kts | 299° |
| 2026-04-21 02:37 | 23.60359 | -74.92699 | 26110 ft | 272 kts | 299° |
| 2026-04-21 02:37 | 23.61371 | -74.94445 | 26110 ft | 272 kts | 299° |
| 2026-04-21 02:37 | 23.62384 | -74.96195 | 26110 ft | 272 kts | 299° |
| 2026-04-21 02:37 | 23.63392 | -74.97940 | 26110 ft | 272 kts | 299° |
| 2026-04-21 02:38 | 23.64404 | -74.99687 | 26116 ft | 272 kts | 299° |
| 2026-04-21 02:38 | 23.65414 | -75.01436 | 26114 ft | 273 kts | 298° |
| 2026-04-21 02:38 | 23.66425 | -75.03184 | 26115 ft | 273 kts | 299° |
| 2026-04-21 02:38 | 23.67436 | -75.04936 | 26115 ft | 273 kts | 298° |
| 2026-04-21 02:39 | 23.68445 | -75.06685 | 26118 ft | 273 kts | 298° |
| 2026-04-21 02:39 | 23.69455 | -75.08433 | 26117 ft | 272 kts | 298° |
| 2026-04-21 02:39 | 23.70464 | -75.10184 | 26121 ft | 272 kts | 298° |
| 2026-04-21 02:39 | 23.71473 | -75.11933 | 26117 ft | 272 kts | 298° |
| 2026-04-21 02:40 | 23.72469 | -75.13661 | 26120 ft | 272 kts | 298° |
| 2026-04-21 02:40 | 23.73478 | -75.15413 | 26117 ft | 272 kts | 298° |
| 2026-04-21 02:40 | 23.74488 | -75.17164 | 26117 ft | 272 kts | 298° |
| 2026-04-21 02:40 | 23.75497 | -75.18917 | 26117 ft | 272 kts | 298° |
| 2026-04-21 02:41 | 23.76506 | -75.20669 | 26116 ft | 272 kts | 298° |
| 2026-04-21 02:41 | 23.77513 | -75.22419 | 26119 ft | 272 kts | 298° |
| 2026-04-21 02:41 | 23.78522 | -75.24175 | 26119 ft | 272 kts | 298° |
| 2026-04-21 02:41 | 23.79531 | -75.25927 | 26119 ft | 272 kts | 298° |
| 2026-04-21 02:42 | 23.80537 | -75.27678 | 26121 ft | 272 kts | 298° |
| 2026-04-21 02:42 | 23.81543 | -75.29429 | 26124 ft | 272 kts | 298° |
| 2026-04-21 02:42 | 23.82540 | -75.31161 | 26121 ft | 272 kts | 298° |
| 2026-04-21 02:42 | 23.83547 | -75.32914 | 26121 ft | 272 kts | 298° |
| 2026-04-21 02:43 | 23.84555 | -75.34669 | 26124 ft | 272 kts | 298° |
| 2026-04-21 02:43 | 23.85560 | -75.36420 | 26121 ft | 272 kts | 298° |
| 2026-04-21 02:43 | 23.86565 | -75.38171 | 26121 ft | 272 kts | 298° |
| 2026-04-21 02:43 | 23.87572 | -75.39925 | 26124 ft | 272 kts | 298° |
| 2026-04-21 02:44 | 23.88576 | -75.41677 | 26128 ft | 272 kts | 298° |
| 2026-04-21 02:44 | 23.89582 | -75.43431 | 26123 ft | 272 kts | 298° |
| 2026-04-21 02:44 | 23.90586 | -75.45184 | 26123 ft | 272 kts | 298° |
| 2026-04-21 02:44 | 23.91592 | -75.46939 | 26126 ft | 272 kts | 298° |
| 2026-04-21 02:45 | 23.92596 | -75.48691 | 26124 ft | 272 kts | 298° |
| 2026-04-21 02:45 | 23.93602 | -75.50450 | 26127 ft | 272 kts | 298° |
| 2026-04-21 02:45 | 23.94606 | -75.52203 | 26124 ft | 272 kts | 298° |
| 2026-04-21 02:45 | 23.95609 | -75.53956 | 26124 ft | 272 kts | 298° |
| 2026-04-21 02:46 | 23.96614 | -75.55715 | 26129 ft | 272 kts | 298° |
| 2026-04-21 02:46 | 23.97605 | -75.57447 | 26129 ft | 272 kts | 298° |
| 2026-04-21 02:46 | 23.98607 | -75.59204 | 26129 ft | 272 kts | 298° |
| 2026-04-21 02:46 | 23.99612 | -75.60963 | 26131 ft | 272 kts | 298° |
| 2026-04-21 02:47 | 24.00614 | -75.62717 | 26123 ft | 272 kts | 298° |
| 2026-04-21 02:47 | 24.01615 | -75.64474 | 26126 ft | 272 kts | 298° |
| 2026-04-21 02:47 | 24.02617 | -75.66228 | 26126 ft | 272 kts | 298° |
| 2026-04-21 02:47 | 24.03618 | -75.67986 | 26126 ft | 272 kts | 298° |
| 2026-04-21 02:48 | 24.04620 | -75.69744 | 26129 ft | 272 kts | 298° |
| 2026-04-21 02:48 | 24.05623 | -75.71502 | 26131 ft | 272 kts | 298° |
| 2026-04-21 02:48 | 24.06614 | -75.73243 | 26129 ft | 272 kts | 298° |
| 2026-04-21 02:48 | 24.07615 | -75.74999 | 26129 ft | 272 kts | 298° |
| 2026-04-21 02:49 | 24.08614 | -75.76756 | 26132 ft | 272 kts | 298° |
| 2026-04-21 02:49 | 24.09616 | -75.78517 | 26132 ft | 272 kts | 298° |
| 2026-04-21 02:49 | 24.10616 | -75.80274 | 26134 ft | 272 kts | 298° |
| 2026-04-21 02:49 | 24.11617 | -75.82035 | 26131 ft | 272 kts | 298° |
| 2026-04-21 02:50 | 24.12617 | -75.83794 | 26129 ft | 272 kts | 298° |
| 2026-04-21 02:50 | 24.13618 | -75.85555 | 26132 ft | 272 kts | 298° |
| 2026-04-21 02:50 | 24.14619 | -75.87316 | 26129 ft | 272 kts | 298° |
| 2026-04-21 02:50 | 24.15619 | -75.89075 | 26132 ft | 272 kts | 298° |
| 2026-04-21 02:51 | 24.16619 | -75.90838 | 26131 ft | 272 kts | 298° |
| 2026-04-21 02:51 | 24.17620 | -75.92600 | 26132 ft | 272 kts | 298° |
| 2026-04-21 02:51 | 24.18609 | -75.94343 | 26132 ft | 272 kts | 298° |
| 2026-04-21 02:51 | 24.19607 | -75.96104 | 26132 ft | 272 kts | 298° |
| 2026-04-21 02:52 | 24.20620 | -75.97888 | 26131 ft | 272 kts | 298° |
| 2026-04-21 02:52 | 24.21606 | -75.99630 | 26129 ft | 272 kts | 298° |
| 2026-04-21 02:52 | 24.22606 | -76.01393 | 26129 ft | 272 kts | 298° |
| 2026-04-21 02:52 | 24.23606 | -76.03159 | 26129 ft | 272 kts | 298° |
| 2026-04-21 02:53 | 24.24605 | -76.04925 | 26132 ft | 272 kts | 298° |
| 2026-04-21 02:53 | 24.25604 | -76.06688 | 26132 ft | 272 kts | 298° |
| 2026-04-21 02:53 | 24.26603 | -76.08455 | 26132 ft | 272 kts | 298° |
| 2026-04-21 02:53 | 24.27604 | -76.10224 | 26134 ft | 272 kts | 298° |
| 2026-04-21 02:54 | 24.28602 | -76.11988 | 26132 ft | 272 kts | 298° |
| 2026-04-21 02:54 | 24.29597 | -76.13753 | 26132 ft | 272 kts | 298° |
| 2026-04-21 02:54 | 24.30596 | -76.15520 | 26132 ft | 272 kts | 298° |
| 2026-04-21 02:54 | 24.31593 | -76.17288 | 26132 ft | 272 kts | 298° |
| 2026-04-21 02:55 | 24.32592 | -76.19058 | 26129 ft | 272 kts | 298° |
| 2026-04-21 02:55 | 24.33589 | -76.20823 | 26129 ft | 272 kts | 298° |
| 2026-04-21 02:55 | 24.34584 | -76.22590 | 26134 ft | 272 kts | 298° |
| 2026-04-21 02:55 | 24.35582 | -76.24358 | 26134 ft | 272 kts | 298° |
| 2026-04-21 02:56 | 24.36567 | -76.26107 | 26134 ft | 272 kts | 298° |
| 2026-04-21 02:56 | 24.38574 | -76.29670 | 26135 ft | 273 kts | 298° |
| 2026-04-21 02:56 | 24.39572 | -76.31444 | 26135 ft | 273 kts | 298° |
| 2026-04-21 02:57 | 24.40559 | -76.33197 | 26135 ft | 274 kts | 298° |
| 2026-04-21 02:57 | 24.41560 | -76.34978 | 26136 ft | 274 kts | 298° |
| 2026-04-21 02:57 | 24.42559 | -76.36756 | 26136 ft | 274 kts | 298° |
| 2026-04-21 02:57 | 24.43560 | -76.38534 | 26136 ft | 274 kts | 298° |
| 2026-04-21 02:58 | 24.44558 | -76.40310 | 26136 ft | 274 kts | 298° |
| 2026-04-21 02:58 | 24.45558 | -76.42088 | 26136 ft | 274 kts | 298° |
| 2026-04-21 02:58 | 24.46557 | -76.43868 | 26136 ft | 274 kts | 298° |
| 2026-04-21 02:58 | 24.47556 | -76.45648 | 26136 ft | 274 kts | 298° |
| 2026-04-21 02:59 | 24.48558 | -76.47430 | 26136 ft | 274 kts | 298° |
| 2026-04-21 02:59 | 24.49543 | -76.49188 | 26136 ft | 274 kts | 298° |
| 2026-04-21 02:59 | 24.50543 | -76.50969 | 26136 ft | 274 kts | 298° |
| 2026-04-21 02:59 | 24.51539 | -76.52747 | 26136 ft | 274 kts | 297° |
| 2026-04-21 03:00 | 24.52537 | -76.54528 | 26136 ft | 274 kts | 297° |
| 2026-04-21 03:00 | 24.53536 | -76.56309 | 26136 ft | 274 kts | 297° |
| 2026-04-21 03:00 | 24.54534 | -76.58093 | 26139 ft | 274 kts | 297° |
| 2026-04-21 03:00 | 24.55533 | -76.59877 | 26139 ft | 274 kts | 297° |
| 2026-04-21 03:01 | 24.56530 | -76.61659 | 26140 ft | 274 kts | 297° |
| 2026-04-21 03:01 | 24.57525 | -76.63438 | 26140 ft | 274 kts | 297° |
| 2026-04-21 03:01 | 24.58524 | -76.65222 | 26140 ft | 273 kts | 297° |
| 2026-04-21 03:01 | 24.59516 | -76.67000 | 26140 ft | 273 kts | 297° |
| 2026-04-21 03:02 | 24.60511 | -76.68782 | 26140 ft | 273 kts | 297° |
| 2026-04-21 03:02 | 24.61497 | -76.70546 | 26140 ft | 273 kts | 297° |
| 2026-04-21 03:02 | 24.62491 | -76.72329 | 26140 ft | 273 kts | 297° |
| 2026-04-21 03:02 | 24.63485 | -76.74109 | 26140 ft | 273 kts | 297° |
| 2026-04-21 03:03 | 24.64481 | -76.75895 | 26140 ft | 273 kts | 297° |
| 2026-04-21 03:03 | 24.65477 | -76.77682 | 26140 ft | 273 kts | 297° |
| 2026-04-21 03:03 | 24.66472 | -76.79466 | 26141 ft | 273 kts | 297° |
| 2026-04-21 03:03 | 24.67464 | -76.81248 | 26141 ft | 273 kts | 297° |
| 2026-04-21 03:04 | 24.68457 | -76.83030 | 26138 ft | 274 kts | 297° |
| 2026-04-21 03:04 | 24.69453 | -76.84818 | 26138 ft | 273 kts | 297° |
| 2026-04-21 03:04 | 24.70445 | -76.86604 | 26135 ft | 273 kts | 297° |
| 2026-04-21 03:04 | 24.71440 | -76.88389 | 26138 ft | 273 kts | 297° |
| 2026-04-21 03:05 | 24.72432 | -76.90176 | 26138 ft | 273 kts | 297° |
| 2026-04-21 03:05 | 24.73424 | -76.91959 | 26135 ft | 273 kts | 297° |
| 2026-04-21 03:05 | 24.74416 | -76.93743 | 26138 ft | 273 kts | 297° |
| 2026-04-21 03:05 | 24.75409 | -76.95530 | 26141 ft | 273 kts | 297° |
| 2026-04-21 03:06 | 24.76391 | -76.97297 | 26137 ft | 274 kts | 297° |
| 2026-04-21 03:06 | 24.77385 | -76.99089 | 26137 ft | 274 kts | 297° |
| 2026-04-21 03:06 | 24.78382 | -77.00882 | 26137 ft | 274 kts | 297° |
| 2026-04-21 03:06 | 24.79374 | -77.02672 | 26137 ft | 274 kts | 297° |
| 2026-04-21 03:07 | 24.80369 | -77.04465 | 26137 ft | 274 kts | 297° |
| 2026-04-21 03:07 | 24.81362 | -77.06254 | 26138 ft | 274 kts | 297° |
| 2026-04-21 03:07 | 24.82355 | -77.08049 | 26138 ft | 274 kts | 297° |
| 2026-04-21 03:07 | 24.83349 | -77.09841 | 26143 ft | 274 kts | 297° |
| 2026-04-21 03:08 | 24.84342 | -77.11634 | 26142 ft | 274 kts | 297° |
| 2026-04-21 03:08 | 24.85336 | -77.13430 | 26142 ft | 274 kts | 297° |
| 2026-04-21 03:08 | 24.86331 | -77.15226 | 26144 ft | 274 kts | 297° |
| 2026-04-21 03:08 | 24.87325 | -77.17026 | 26146 ft | 274 kts | 297° |
| 2026-04-21 03:09 | 24.88318 | -77.18820 | 26147 ft | 274 kts | 297° |
| 2026-04-21 03:09 | 24.89313 | -77.20620 | 26149 ft | 274 kts | 297° |
| 2026-04-21 03:09 | 24.90290 | -77.22392 | 26151 ft | 274 kts | 297° |
| 2026-04-21 03:09 | 24.91283 | -77.24189 | 26152 ft | 274 kts | 297° |
| 2026-04-21 03:10 | 24.92275 | -77.25985 | 26155 ft | 274 kts | 297° |
| 2026-04-21 03:10 | 24.93266 | -77.27783 | 26157 ft | 274 kts | 297° |
| 2026-04-21 03:10 | 24.94256 | -77.29576 | 26158 ft | 274 kts | 297° |
| 2026-04-21 03:10 | 24.95246 | -77.31374 | 26159 ft | 274 kts | 297° |
| 2026-04-21 03:11 | 24.95901 | -77.32564 | 26159 ft | 274 kts | 297° |
| 2026-04-21 03:11 | 24.97226 | -77.34966 | 26161 ft | 274 kts | 297° |
| 2026-04-21 03:11 | 24.97881 | -77.36157 | 26162 ft | 274 kts | 297° |
| 2026-04-21 03:11 | 24.98871 | -77.37955 | 26163 ft | 274 kts | 297° |
| 2026-04-21 03:12 | 24.99863 | -77.39756 | 26163 ft | 274 kts | 297° |
| 2026-04-21 03:12 | 25.01172 | -77.42137 | 26163 ft | 274 kts | 297° |
| 2026-04-21 03:12 | 25.01840 | -77.43351 | 26163 ft | 274 kts | 297° |
| 2026-04-21 03:12 | 25.02757 | -77.45187 | 26161 ft | 272 kts | 291° |
| 2026-04-21 03:13 | 25.03463 | -77.47113 | 26162 ft | 271 kts | 289° |
| 2026-04-21 03:13 | 25.04181 | -77.49007 | 26162 ft | 271 kts | 290° |
| 2026-04-21 03:13 | 25.04912 | -77.50930 | 26162 ft | 271 kts | 290° |
| 2026-04-21 03:13 | 25.05633 | -77.52857 | 26162 ft | 271 kts | 290° |
| 2026-04-21 03:14 | 25.06353 | -77.54781 | 26164 ft | 271 kts | 290° |
| 2026-04-21 03:14 | 25.07075 | -77.56706 | 26164 ft | 271 kts | 290° |
| 2026-04-21 03:14 | 25.07796 | -77.58630 | 26163 ft | 271 kts | 290° |
| 2026-04-21 03:14 | 25.08515 | -77.60552 | 26163 ft | 271 kts | 290° |
| 2026-04-21 03:15 | 25.09234 | -77.62474 | 26161 ft | 271 kts | 290° |
| 2026-04-21 03:15 | 25.09945 | -77.64376 | 26160 ft | 271 kts | 290° |
| 2026-04-21 03:15 | 25.10665 | -77.66301 | 26159 ft | 271 kts | 290° |
| 2026-04-21 03:15 | 25.11384 | -77.68227 | 26158 ft | 271 kts | 290° |
| 2026-04-21 03:16 | 25.12104 | -77.70153 | 26160 ft | 271 kts | 290° |
| 2026-04-21 03:16 | 25.12821 | -77.72076 | 26174 ft | 271 kts | 290° |
| 2026-04-21 03:16 | 25.13541 | -77.74006 | 26155 ft | 272 kts | 290° |
| 2026-04-21 03:16 | 25.14260 | -77.75934 | 26155 ft | 272 kts | 290° |
| 2026-04-21 03:17 | 25.14980 | -77.77865 | 26153 ft | 272 kts | 290° |
| 2026-04-21 03:17 | 25.15697 | -77.79793 | 26152 ft | 272 kts | 290° |
| 2026-04-21 03:17 | 25.16416 | -77.81725 | 26150 ft | 272 kts | 290° |